Time;durP1;ratioP1;P1;durP2;ratioP2;P2;SDS_P1;SDS_P2;PMS_P1;PMS_P2;Temp;Humidity;BMP_temperature;BMP_pressure;BME280_temperature;BME280_humidity;BME280_pressure;Samples;Min_cycle;Max_cycle;Signal;HPM_P1;HPM_P2
2021/10/02 00:36:16;;;;;;;3.72;0.75;;;13.90;84.50;;;;;;5039852;28;20040;-62
2021/10/02 00:41:47;;;;;;;2.60;0.80;;;13.80;85.00;;;;;;5039466;28;20384;-62
2021/10/02 00:47:02;;;;;;;3.47;1.00;;;13.70;85.40;;;;;;5038431;28;20109;-62
2021/10/02 00:49:30;;;;;;;2.70;0.90;;;13.70;86.20;;;;;;5038404;28;20028;-62
2021/10/02 00:51:59;;;;;;;2.60;0.75;;;13.70;86.40;;;;;;5038472;28;20026;-62
2021/10/02 00:54:27;;;;;;;7.45;0.93;;;13.70;87.10;;;;;;5038263;28;20072;-62
2021/10/02 00:56:56;;;;;;;4.03;0.85;;;13.60;87.70;;;;;;5038686;28;20044;-62
2021/10/02 00:59:28;;;;;;;3.88;1.10;;;13.60;87.90;;;;;;5020504;28;20052;-62
2021/10/02 01:01:59;;;;;;;3.72;1.20;;;13.50;89.00;;;;;;5038047;28;20341;-62
2021/10/02 01:04:41;;;;;;;1.90;0.85;;;13.40;89.80;;;;;;5038068;28;20049;-62
2021/10/02 01:07:18;;;;;;;2.83;0.70;;;13.30;90.10;;;;;;5039220;28;20025;-62
2021/10/02 01:10:14;;;;;;;4.13;1.00;;;13.20;90.40;;;;;;5038769;28;20026;-62
2021/10/02 01:13:20;;;;;;;2.92;1.63;;;13.10;90.60;;;;;;5034869;28;20328;-62
2021/10/02 01:15:54;;;;;;;1.95;0.90;;;13.10;90.70;;;;;;5039088;28;20105;-62
2021/10/02 01:18:33;;;;;;;2.83;0.82;;;13.00;91.10;;;;;;5038752;28;20079;-62
2021/10/02 01:21:19;;;;;;;7.45;1.25;;;12.90;91.30;;;;;;5038811;28;20130;-62
2021/10/02 01:23:56;;;;;;;3.70;0.87;;;12.90;91.60;;;;;;5038664;28;20075;-62
2021/10/02 01:27:02;;;;;;;5.55;0.85;;;12.80;91.90;;;;;;5037937;28;20033;-62
2021/10/02 01:29:32;;;;;;;5.18;0.80;;;12.70;92.30;;;;;;5038110;28;20017;-62
2021/10/02 01:34:58;;;;;;;2.17;0.85;;;12.60;93.00;;;;;;5037534;28;20036;-62
2021/10/02 01:48:22;;;;;;;4.80;1.13;;;12.20;95.40;;;;;;5038625;28;20040;-62
2021/10/02 01:50:51;;;;;;;8.02;1.23;;;12.10;95.80;;;;;;5038129;28;20033;-63
2021/10/02 01:53:21;;;;;;;2.72;1.30;;;12.00;96.10;;;;;;5037931;28;20025;-62
2021/10/02 01:55:51;;;;;;;2.28;1.13;;;12.00;96.20;;;;;;5038300;28;20084;-63
2021/10/02 01:58:22;;;;;;;5.40;1.17;;;12.00;96.40;;;;;;5037885;28;20117;-63
2021/10/02 02:00:50;;;;;;;6.18;1.55;;;11.90;96.60;;;;;;5037965;28;20072;-63
2021/10/02 02:03:20;;;;;;;4.35;1.20;;;11.90;96.60;;;;;;5020410;28;20036;-63
2021/10/02 02:05:49;;;;;;;4.55;1.20;;;11.80;96.80;;;;;;5038016;28;20025;-63
2021/10/02 02:08:20;;;;;;;2.78;1.15;;;11.80;96.80;;;;;;5036888;28;20328;-63
2021/10/02 02:10:48;;;;;;;4.45;1.70;;;11.80;97.00;;;;;;5019305;28;20033;-63
2021/10/02 02:13:17;;;;;;;4.55;1.98;;;11.80;97.20;;;;;;5019658;28;20049;-63
2021/10/02 02:15:48;;;;;;;2.90;1.35;;;11.80;97.40;;;;;;5037504;28;20021;-63
2021/10/02 02:18:21;;;;;;;4.13;1.55;;;11.70;97.40;;;;;;5036590;28;20064;-63
2021/10/02 02:21:00;;;;;;;5.05;1.40;;;11.70;97.50;;;;;;5036722;28;20333;-63
2021/10/02 02:23:29;;;;;;;2.63;1.20;;;11.70;97.80;;;;;;5037225;28;20021;-63
2021/10/02 02:26:04;;;;;;;4.03;1.45;;;11.70;98.00;;;;;;5036726;28;20104;-62
2021/10/02 02:28:37;;;;;;;6.32;1.60;;;11.70;98.10;;;;;;5037766;28;20124;-63
2021/10/02 02:31:05;;;;;;;2.35;1.10;;;11.70;98.20;;;;;;5038024;28;20368;-63
2021/10/02 02:33:34;;;;;;;4.32;1.17;;;11.60;98.30;;;;;;5037376;28;20357;-63
2021/10/02 02:36:03;;;;;;;4.97;2.10;;;11.60;98.40;;;;;;5038127;28;20406;-63
2021/10/02 02:38:31;;;;;;;6.05;1.65;;;11.60;98.60;;;;;;5044652;28;20087;-62
2021/10/02 02:40:59;;;;;;;10.00;1.38;;;11.60;98.80;;;;;;5057609;28;20021;-63
2021/10/02 02:43:32;;;;;;;5.47;1.73;;;11.60;99.00;;;;;;5057838;28;20029;-63
2021/10/02 02:46:16;;;;;;;6.20;1.20;;;11.60;99.30;;;;;;5057341;28;20070;-63
2021/10/02 02:49:14;;;;;;;7.57;1.25;;;11.60;99.50;;;;;;5056402;28;20025;-63
2021/10/02 02:52:03;;;;;;;4.30;0.90;;;11.60;99.70;;;;;;5057059;28;20036;-63
2021/10/02 02:54:40;;;;;;;3.72;1.67;;;11.60;99.90;;;;;;5058767;28;20024;-63
2021/10/02 02:57:26;;;;;;;3.15;1.50;;;11.60;99.90;;;;;;5060743;28;20029;-63
2021/10/02 03:00:08;;;;;;;2.58;1.23;;;11.70;99.90;;;;;;5061061;28;20079;-63
2021/10/02 03:03:03;;;;;;;2.47;0.88;;;11.60;99.90;;;;;;5060810;28;20042;-63
2021/10/02 03:05:31;;;;;;;1.77;1.08;;;11.70;99.90;;;;;;5058892;28;20131;-63
2021/10/02 03:08:17;;;;;;;5.35;1.50;;;11.60;99.90;;;;;;5060877;28;20029;-63
2021/10/02 03:10:50;;;;;;;3.25;1.15;;;11.70;99.90;;;;;;5061095;28;20424;-63
2021/10/02 03:13:19;;;;;;;4.18;1.40;;;11.60;99.90;;;;;;5061322;28;20328;-63
2021/10/02 03:15:49;;;;;;;6.25;1.90;;;11.70;99.90;;;;;;5059891;28;20112;-63
2021/10/02 03:18:18;;;;;;;2.78;1.20;;;11.70;99.90;;;;;;5060774;28;20075;-63
2021/10/02 03:20:50;;;;;;;2.85;1.02;;;11.70;99.90;;;;;;5061126;28;20044;-63
2021/10/02 03:23:25;;;;;;;2.75;1.40;;;11.70;99.90;;;;;;5061360;28;20293;-63
2021/10/02 03:25:53;;;;;;;4.00;1.20;;;11.70;99.90;;;;;;5060797;28;20025;-63
2021/10/02 03:28:21;;;;;;;3.65;1.20;;;11.80;99.90;;;;;;5058835;28;20040;-63
2021/10/02 03:30:50;;;;;;;2.50;1.13;;;11.80;99.90;;;;;;5060017;28;20534;-63
2021/10/02 03:33:22;;;;;;;3.25;1.40;;;11.80;99.90;;;;;;5060228;28;20032;-63
2021/10/02 03:35:50;;;;;;;5.00;1.52;;;11.80;99.90;;;;;;5059755;28;20417;-63
2021/10/02 03:38:19;;;;;;;2.00;1.20;;;11.80;99.90;;;;;;5047160;28;20057;-63
2021/10/02 03:40:48;;;;;;;3.55;1.27;;;11.80;99.90;;;;;;5039791;28;20417;-63
2021/10/02 03:43:16;;;;;;;3.95;1.23;;;11.80;99.90;;;;;;5040127;28;20021;-63
2021/10/02 03:45:43;;;;;;;3.80;1.17;;;11.80;99.90;;;;;;5039585;28;20018;-63
2021/10/02 03:48:10;;;;;;;2.25;1.20;;;11.80;99.90;;;;;;5039991;28;20021;-63
2021/10/02 03:50:38;;;;;;;2.97;1.70;;;11.80;99.90;;;;;;5040435;28;20049;-63
2021/10/02 03:53:05;;;;;;;2.85;1.52;;;11.80;99.90;;;;;;5040319;28;20026;-63
2021/10/02 03:55:33;;;;;;;4.03;1.10;;;11.80;99.90;;;;;;5040844;28;20049;-63
2021/10/02 03:58:00;;;;;;;4.50;1.30;;;11.80;99.90;;;;;;5040446;28;20034;-63
2021/10/02 04:00:28;;;;;;;3.75;1.20;;;11.90;99.90;;;;;;5040383;28;20105;-63
2021/10/02 04:02:55;;;;;;;6.38;1.58;;;11.90;99.90;;;;;;5022513;28;20109;-63
2021/10/02 04:05:23;;;;;;;8.88;2.13;;;11.90;99.90;;;;;;5021736;28;20029;-63
2021/10/02 04:07:50;;;;;;;2.13;1.13;;;11.90;99.90;;;;;;5022401;28;20035;-63
2021/10/02 04:10:18;;;;;;;4.63;1.08;;;11.90;99.90;;;;;;5039306;28;20028;-63
2021/10/02 04:12:45;;;;;;;5.60;1.75;;;11.90;99.90;;;;;;5039322;28;20021;-63
2021/10/02 04:15:12;;;;;;;4.97;1.50;;;11.90;99.90;;;;;;5039025;28;20021;-63
2021/10/02 04:17:40;;;;;;;2.80;1.02;;;11.90;99.90;;;;;;5038854;28;20057;-63
2021/10/02 04:20:08;;;;;;;2.47;1.10;;;11.90;99.90;;;;;;5039126;28;20018;-63
2021/10/02 04:22:35;;;;;;;5.50;1.20;;;11.80;99.90;;;;;;5021306;28;20060;-63
2021/10/02 04:25:02;;;;;;;4.40;1.25;;;11.90;99.90;;;;;;5021550;28;20329;-63
2021/10/02 04:27:30;;;;;;;7.50;1.25;;;11.90;99.90;;;;;;5039326;28;20036;-63
2021/10/02 04:29:58;;;;;;;3.55;1.10;;;11.80;99.90;;;;;;5038940;28;20365;-63
2021/10/02 04:32:25;;;;;;;6.90;1.50;;;11.90;99.90;;;;;;5039743;28;20325;-63
2021/10/02 04:34:53;;;;;;;3.70;1.23;;;11.90;99.90;;;;;;5040111;28;20037;-63
2021/10/02 04:37:20;;;;;;;2.67;1.75;;;11.90;99.90;;;;;;5039811;28;20045;-63
2021/10/02 04:39:48;;;;;;;3.78;1.42;;;11.90;99.90;;;;;;5039670;28;20124;-63
2021/10/02 04:42:15;;;;;;;3.70;1.38;;;11.90;99.90;;;;;;5021819;28;20052;-63
2021/10/02 04:44:43;;;;;;;5.65;2.45;;;12.00;99.90;;;;;;5039921;28;20022;-63
2021/10/02 04:47:12;;;;;;;7.13;1.42;;;12.00;99.90;;;;;;5039174;28;20104;-63
2021/10/02 04:49:40;;;;;;;4.85;1.38;;;11.90;99.90;;;;;;5039442;28;20120;-63
2021/10/02 04:52:08;;;;;;;3.70;1.40;;;12.00;99.90;;;;;;5020820;28;20409;-63
2021/10/02 04:54:35;;;;;;;5.35;1.30;;;11.90;99.90;;;;;;5038324;28;20030;-63
2021/10/02 04:57:03;;;;;;;3.72;1.40;;;11.90;99.90;;;;;;5020724;28;20017;-63
2021/10/02 04:59:31;;;;;;;3.80;1.38;;;11.90;99.90;;;;;;5038384;28;20084;-63
2021/10/02 05:01:59;;;;;;;4.78;1.40;;;11.90;99.90;;;;;;5038133;28;20036;-63
2021/10/02 05:04:26;;;;;;;6.57;1.30;;;11.80;99.90;;;;;;5038135;28;20448;-63
2021/10/02 05:06:54;;;;;;;4.63;1.75;;;11.80;99.90;;;;;;5038630;28;20416;-63
2021/10/02 05:09:22;;;;;;;2.40;1.27;;;11.80;99.90;;;;;;5020405;28;20029;-63
2021/10/02 05:11:49;;;;;;;3.72;1.40;;;11.90;99.90;;;;;;5038291;28;20025;-63
2021/10/02 05:14:17;;;;;;;4.05;1.40;;;11.90;99.90;;;;;;5038508;28;20475;-63
2021/10/02 05:16:45;;;;;;;4.70;1.50;;;11.90;99.90;;;;;;5038695;28;20100;-63
2021/10/02 05:19:13;;;;;;;3.30;1.48;;;11.90;99.90;;;;;;5038190;28;20059;-63
2021/10/02 05:21:41;;;;;;;2.97;1.25;;;11.90;99.90;;;;;;5038873;28;20029;-63
2021/10/02 05:24:10;;;;;;;3.65;1.40;;;12.00;99.90;;;;;;5038574;28;20029;-63
2021/10/02 05:26:37;;;;;;;4.30;1.70;;;12.00;99.90;;;;;;5039086;28;20022;-63
2021/10/02 05:29:04;;;;;;;3.65;1.20;;;12.00;99.90;;;;;;5038551;28;20021;-63
2021/10/02 05:31:32;;;;;;;2.90;1.17;;;12.10;99.90;;;;;;5038452;28;20089;-63
2021/10/02 05:33:59;;;;;;;3.00;1.05;;;12.10;99.90;;;;;;5037642;28;20025;-63
2021/10/02 05:36:27;;;;;;;6.93;1.23;;;12.10;99.90;;;;;;5037496;28;20026;-63
2021/10/02 05:38:54;;;;;;;2.30;1.05;;;12.10;99.90;;;;;;5037327;28;20037;-63
2021/10/02 05:41:22;;;;;;;2.67;1.30;;;12.10;99.90;;;;;;5037559;28;20014;-63
2021/10/02 05:43:50;;;;;;;2.13;0.98;;;12.10;99.90;;;;;;5037616;28;20021;-63
2021/10/02 05:46:17;;;;;;;1.75;0.95;;;12.10;99.90;;;;;;5037992;28;20025;-63
2021/10/02 05:48:44;;;;;;;3.50;1.30;;;12.10;99.90;;;;;;5037078;28;20026;-63
2021/10/02 05:51:12;;;;;;;3.78;1.55;;;12.10;99.90;;;;;;5037163;28;20033;-63
2021/10/02 05:53:39;;;;;;;3.50;1.27;;;12.10;99.90;;;;;;5037172;28;20108;-63
2021/10/02 05:56:07;;;;;;;4.72;1.05;;;12.10;99.90;;;;;;5038058;28;20056;-63
2021/10/02 05:58:34;;;;;;;3.05;1.08;;;12.20;99.90;;;;;;5037897;28;20033;-63
2021/10/02 06:01:02;;;;;;;6.95;1.25;;;12.20;99.90;;;;;;5037888;28;20075;-63
2021/10/02 06:03:30;;;;;;;4.20;1.00;;;12.20;99.90;;;;;;5020154;28;20071;-63
2021/10/02 06:06:00;;;;;;;2.85;1.20;;;12.20;99.90;;;;;;5038082;28;20029;-63
2021/10/02 06:08:29;;;;;;;3.78;1.27;;;12.20;99.90;;;;;;5037679;28;20440;-63
2021/10/02 06:10:56;;;;;;;3.95;1.10;;;12.20;99.90;;;;;;5020250;28;20431;-63
2021/10/02 06:13:24;;;;;;;3.72;1.30;;;12.20;99.90;;;;;;5038322;28;20025;-63
2021/10/02 06:15:52;;;;;;;7.78;2.08;;;12.20;99.90;;;;;;5019846;28;20100;-63
2021/10/02 06:18:20;;;;;;;4.00;1.27;;;12.10;99.90;;;;;;5036674;28;20030;-63
2021/10/02 06:20:47;;;;;;;2.78;1.13;;;12.10;99.90;;;;;;5037048;28;20017;-63
2021/10/02 06:23:15;;;;;;;4.72;1.35;;;12.10;99.90;;;;;;5036585;28;20024;-63
2021/10/02 06:25:43;;;;;;;9.52;1.80;;;12.10;99.90;;;;;;5036730;28;20406;-63
2021/10/02 06:28:11;;;;;;;3.90;1.48;;;12.20;99.90;;;;;;5036286;28;20033;-63
2021/10/02 06:30:39;;;;;;;3.55;1.25;;;12.40;99.90;;;;;;5036649;28;20084;-63
2021/10/02 06:33:06;;;;;;;4.05;1.60;;;12.50;99.90;;;;;;5019005;28;20032;-63
2021/10/02 06:35:33;;;;;;;4.68;1.40;;;12.60;99.90;;;;;;5037223;28;20079;-63
2021/10/02 06:38:01;;;;;;;5.50;1.50;;;12.70;99.90;;;;;;5037060;28;20046;-63
2021/10/02 06:40:32;;;;;;;5.47;1.52;;;12.80;99.90;;;;;;5037332;28;20345;-63
2021/10/02 06:42:59;;;;;;;3.03;1.30;;;12.80;99.90;;;;;;5037355;28;20024;-63
2021/10/02 06:45:27;;;;;;;2.80;1.00;;;12.90;99.90;;;;;;5037740;28;20029;-63
2021/10/02 06:47:55;;;;;;;3.30;1.10;;;12.90;99.90;;;;;;5019777;28;20416;-63
2021/10/02 06:50:22;;;;;;;2.40;1.10;;;12.90;99.90;;;;;;5037264;28;20029;-63
2021/10/02 06:52:51;;;;;;;2.28;1.00;;;12.90;99.90;;;;;;5037927;28;20321;-63
2021/10/02 06:55:18;;;;;;;4.22;1.30;;;12.80;99.90;;;;;;5037147;28;20075;-63
2021/10/02 06:57:46;;;;;;;2.95;1.02;;;12.80;99.90;;;;;;5036351;28;20026;-63
2021/10/02 07:00:13;;;;;;;2.38;1.20;;;12.80;99.90;;;;;;5036697;28;20339;-64
2021/10/02 07:02:45;;;;;;;6.97;1.10;;;12.80;99.90;;;;;;5019103;28;20026;-64
2021/10/02 07:05:15;;;;;;;4.53;1.00;;;12.80;99.90;;;;;;5036660;28;20029;-63
2021/10/02 07:07:43;;;;;;;3.58;1.10;;;12.80;99.90;;;;;;5036320;28;20053;-63
2021/10/02 07:10:12;;;;;;;3.85;1.23;;;12.90;99.90;;;;;;5036888;28;20029;-64
2021/10/02 07:12:40;;;;;;;1.90;0.93;;;13.00;99.90;;;;;;5036266;28;20096;-64
2021/10/02 07:15:08;;;;;;;2.70;1.30;;;13.10;99.90;;;;;;5037603;28;20026;-63
2021/10/02 07:17:36;;;;;;;3.10;1.17;;;13.10;99.90;;;;;;5036001;28;20032;-64
2021/10/02 07:20:04;;;;;;;4.03;1.30;;;13.20;99.90;;;;;;5036165;28;20033;-64
2021/10/02 07:22:34;;;;;;;2.70;1.23;;;13.20;99.90;;;;;;5036098;28;20124;-63
2021/10/02 07:25:09;;;;;;;2.42;1.05;;;13.20;99.90;;;;;;5036753;28;20413;-63
2021/10/02 07:27:36;;;;;;;3.45;1.23;;;13.20;99.90;;;;;;5036098;28;20022;-63
2021/10/02 07:30:04;;;;;;;2.75;1.10;;;13.20;99.90;;;;;;5034957;28;20329;-63
2021/10/02 07:32:32;;;;;;;2.75;1.17;;;13.20;99.90;;;;;;5035925;28;20033;-63
2021/10/02 07:35:00;;;;;;;4.97;1.75;;;13.10;99.90;;;;;;5037367;28;20071;-64
2021/10/02 07:37:27;;;;;;;4.15;1.75;;;13.10;99.90;;;;;;5037128;28;20069;-64
2021/10/02 07:39:55;;;;;;;3.72;1.30;;;13.10;99.90;;;;;;5037175;28;20026;-63
2021/10/02 07:42:24;;;;;;;4.93;1.30;;;13.00;99.90;;;;;;5040300;28;20029;-63
2021/10/02 07:45:05;;;;;;;2.63;1.17;;;13.00;99.90;;;;;;5040943;28;20026;-63
2021/10/02 07:47:39;;;;;;;4.80;1.52;;;12.90;99.90;;;;;;5040407;28;20032;-63
2021/10/02 07:50:11;;;;;;;5.68;2.10;;;12.90;99.90;;;;;;5040429;28;20358;-63
2021/10/02 07:52:39;;;;;;;4.18;1.63;;;12.90;99.90;;;;;;5040349;28;20113;-63
2021/10/02 07:55:12;;;;;;;2.78;1.30;;;12.90;99.90;;;;;;5040191;28;20029;-63
2021/10/02 07:57:40;;;;;;;4.10;1.77;;;12.90;99.90;;;;;;5039221;28;20030;-63
2021/10/02 08:00:11;;;;;;;5.18;1.77;;;12.90;99.90;;;;;;5039892;28;20405;-63
2021/10/02 08:02:46;;;;;;;5.30;1.77;;;12.90;99.90;;;;;;5037199;28;20040;-63
2021/10/02 08:05:15;;;;;;;3.63;1.60;;;13.00;99.90;;;;;;5039927;28;20013;-63
2021/10/02 08:07:45;;;;;;;5.82;1.63;;;13.10;99.90;;;;;;5039184;28;20040;-63
2021/10/02 08:10:15;;;;;;;6.35;1.77;;;13.20;99.90;;;;;;5039412;28;20459;-63
2021/10/02 08:12:42;;;;;;;5.28;1.52;;;13.30;99.90;;;;;;5039072;28;20018;-63
2021/10/02 08:15:11;;;;;;;3.85;1.77;;;13.30;99.90;;;;;;5039030;28;20048;-63
2021/10/02 08:17:42;;;;;;;3.53;1.25;;;13.40;99.90;;;;;;5039729;28;20032;-63
2021/10/02 08:20:14;;;;;;;4.25;1.50;;;13.40;99.90;;;;;;5039788;28;20079;-63
2021/10/02 08:22:47;;;;;;;5.53;1.40;;;13.40;99.90;;;;;;5022275;28;20044;-63
2021/10/02 08:25:18;;;;;;;4.32;1.50;;;13.50;99.90;;;;;;5040062;28;20044;-63
2021/10/02 08:27:47;;;;;;;4.05;1.48;;;13.50;99.90;;;;;;5039675;28;20022;-63
2021/10/02 08:30:16;;;;;;;4.72;1.52;;;13.50;99.90;;;;;;5040125;28;20027;-63
2021/10/02 08:32:44;;;;;;;2.67;1.30;;;13.50;99.90;;;;;;5039589;28;20022;-63
2021/10/02 08:35:12;;;;;;;5.40;1.15;;;13.50;99.90;;;;;;5038967;28;20021;-63
2021/10/02 08:37:40;;;;;;;4.85;1.20;;;13.50;99.90;;;;;;5038877;28;20069;-63
2021/10/02 08:40:14;;;;;;;4.47;1.77;;;13.50;99.90;;;;;;5038609;28;20017;-63
2021/10/02 08:42:43;;;;;;;5.10;1.55;;;13.40;99.90;;;;;;5039103;28;20026;-63
2021/10/02 08:45:11;;;;;;;5.40;1.50;;;13.50;99.90;;;;;;5038939;28;20405;-63
2021/10/02 08:47:44;;;;;;;5.03;1.42;;;13.50;99.90;;;;;;5038410;28;20429;-63
2021/10/02 08:50:15;;;;;;;5.18;1.48;;;13.50;99.90;;;;;;5038954;28;20021;-63
2021/10/02 08:52:43;;;;;;;2.53;1.23;;;13.50;99.90;;;;;;5038038;28;20036;-63
2021/10/02 08:55:12;;;;;;;3.20;1.95;;;13.50;99.90;;;;;;5038444;28;20029;-63
2021/10/02 08:57:44;;;;;;;4.10;1.60;;;13.60;99.90;;;;;;5039105;28;20413;-63
2021/10/02 09:00:15;;;;;;;4.78;1.88;;;13.70;99.90;;;;;;5039697;28;20030;-63
2021/10/02 09:02:44;;;;;;;4.68;1.77;;;13.90;99.90;;;;;;5038978;28;20024;-63
2021/10/02 09:05:12;;;;;;;3.83;1.50;;;14.10;99.90;;;;;;5039651;28;20022;-63
2021/10/02 09:07:40;;;;;;;4.43;1.50;;;14.40;99.90;;;;;;5039008;28;20025;-63
2021/10/02 09:10:12;;;;;;;3.20;1.40;;;14.50;99.90;;;;;;5038997;28;20032;-63
2021/10/02 09:12:40;;;;;;;3.30;1.83;;;14.70;99.90;;;;;;5038932;28;20021;-63
2021/10/02 09:15:08;;;;;;;4.57;1.50;;;14.80;99.90;;;;;;5038796;28;20032;-63
2021/10/02 09:17:36;;;;;;;2.65;1.45;;;14.90;99.90;;;;;;5020120;28;20057;-63
2021/10/02 09:20:05;;;;;;;4.60;1.48;;;15.00;99.60;;;;;;5020282;28;20044;-63
2021/10/02 09:22:33;;;;;;;3.22;1.40;;;15.00;99.80;;;;;;5037769;28;20364;-63
2021/10/02 09:25:05;;;;;;;4.20;1.30;;;15.00;99.60;;;;;;5038446;28;20101;-63
2021/10/02 09:27:34;;;;;;;2.95;1.70;;;15.00;99.20;;;;;;5020911;28;20028;-63
2021/10/02 09:30:07;;;;;;;2.80;1.40;;;15.00;99.40;;;;;;5038195;28;20021;-63
2021/10/02 09:32:38;;;;;;;2.67;1.40;;;15.00;99.60;;;;;;5037263;28;20332;-63
2021/10/02 09:35:22;;;;;;;3.58;1.55;;;15.20;99.00;;;;;;5038055;28;20028;-63
2021/10/02 09:37:54;;;;;;;2.65;1.45;;;15.30;99.00;;;;;;5037871;28;20037;-63
2021/10/02 09:40:24;;;;;;;3.95;1.40;;;15.50;98.50;;;;;;5038797;28;20297;-63
2021/10/02 09:42:57;;;;;;;5.03;1.65;;;15.70;98.30;;;;;;5020718;28;20030;-63
2021/10/02 09:45:32;;;;;;;6.00;1.95;;;15.80;98.20;;;;;;5038958;28;20061;-63
2021/10/02 09:48:02;;;;;;;4.28;1.77;;;16.00;97.70;;;;;;5038084;28;20025;-63
2021/10/02 09:50:37;;;;;;;5.22;1.95;;;16.10;97.50;;;;;;5038374;28;20075;-63
2021/10/02 09:53:09;;;;;;;4.43;1.77;;;16.20;97.40;;;;;;5038129;28;20029;-63
2021/10/02 09:55:48;;;;;;;4.93;1.90;;;16.20;97.30;;;;;;5037899;28;20026;-63
2021/10/02 09:58:34;;;;;;;5.00;1.65;;;16.40;96.80;;;;;;5036989;28;20121;-63
2021/10/02 10:01:04;;;;;;;7.05;1.60;;;16.50;96.50;;;;;;5019685;28;20032;-64
2021/10/02 10:03:46;;;;;;;4.72;1.80;;;16.60;96.30;;;;;;5036339;28;20051;-64
2021/10/02 10:06:21;;;;;;;4.25;1.50;;;16.60;96.20;;;;;;5037501;28;20079;-63
2021/10/02 10:09:12;;;;;;;6.18;2.00;;;16.70;96.20;;;;;;5036903;28;20333;-63
2021/10/02 10:11:52;;;;;;;3.97;1.90;;;16.80;96.10;;;;;;5036889;28;20030;-64
2021/10/02 10:14:28;;;;;;;3.75;1.70;;;17.00;95.80;;;;;;5036895;28;20029;-63
2021/10/02 10:16:56;;;;;;;4.53;1.87;;;17.10;94.90;;;;;;5019404;28;20333;-63
2021/10/02 10:19:27;;;;;;;4.68;1.75;;;17.30;94.50;;;;;;5037733;28;20284;-63
2021/10/02 10:22:21;;;;;;;3.88;1.80;;;17.40;94.80;;;;;;5020105;28;20112;-64
2021/10/02 10:24:59;;;;;;;4.05;1.35;;;17.50;94.30;;;;;;5037545;28;20026;-63
2021/10/02 10:27:35;;;;;;;2.70;1.55;;;17.50;94.40;;;;;;5037592;28;20080;-64
2021/10/02 10:30:24;;;;;;;3.75;1.42;;;17.60;94.40;;;;;;5020214;28;20047;-64
2021/10/02 10:33:07;;;;;;;3.35;1.40;;;17.60;93.70;;;;;;5037642;28;20057;-64
2021/10/02 10:35:39;;;;;;;7.03;2.03;;;17.60;93.70;;;;;;5020023;28;20026;-63
2021/10/02 10:38:10;;;;;;;2.80;1.17;;;17.50;93.80;;;;;;5037201;28;20045;-64
2021/10/02 10:40:37;;;;;;;4.85;1.30;;;17.40;93.80;;;;;;5036680;28;20022;-63
2021/10/02 10:43:06;;;;;;;4.07;2.17;;;17.40;93.80;;;;;;5037032;28;20021;-63
2021/10/02 10:45:37;;;;;;;3.45;1.48;;;17.40;93.60;;;;;;5037016;28;20022;-63
2021/10/02 10:48:06;;;;;;;2.90;1.33;;;17.40;93.80;;;;;;5036159;28;20380;-63
2021/10/02 10:50:40;;;;;;;3.30;1.50;;;17.40;93.90;;;;;;5036398;28;20112;-64
2021/10/02 10:53:09;;;;;;;5.60;1.60;;;17.40;93.90;;;;;;5036387;28;20037;-64
2021/10/02 10:55:54;;;;;;;6.47;1.48;;;17.50;94.10;;;;;;5036392;28;20025;-64
2021/10/02 10:58:29;;;;;;;3.08;1.58;;;17.60;94.50;;;;;;5036620;28;20017;-64
2021/10/02 11:00:58;;;;;;;2.67;1.30;;;17.80;94.20;;;;;;5037349;28;20022;-64
2021/10/02 11:03:48;;;;;;;2.92;1.58;;;18.10;93.30;;;;;;5037102;28;20108;-64
2021/10/02 11:06:17;;;;;;;2.80;1.17;;;18.30;92.50;;;;;;5020278;28;20021;-64
2021/10/02 11:09:10;;;;;;;4.60;1.30;;;18.20;92.70;;;;;;5037191;28;20045;-64
2021/10/02 11:11:49;;;;;;;2.63;1.23;;;18.30;92.60;;;;;;5037406;28;20103;-64
2021/10/02 11:14:25;;;;;;;4.63;1.10;;;18.40;92.80;;;;;;5037461;28;20040;-64
2021/10/02 11:17:03;;;;;;;;;;;18.40;92.30;;;;;;5041442;28;20100;-64
2021/10/02 11:19:38;;;;;;;3.00;0.88;;;18.40;92.30;;;;;;5022491;28;19920;-64
2021/10/02 11:22:35;;;;;;;3.15;1.40;;;18.50;92.20;;;;;;5022568;28;20025;-63
2021/10/02 11:25:18;;;;;;;2.17;1.20;;;18.50;91.90;;;;;;5040099;28;20028;-64
2021/10/02 11:27:45;;;;;;;5.20;1.33;;;18.30;92.30;;;;;;5039925;28;20029;-64
2021/10/02 11:30:19;;;;;;;3.47;1.50;;;18.20;92.30;;;;;;5039924;28;20431;-64
2021/10/02 11:32:47;;;;;;;2.58;1.10;;;18.00;92.70;;;;;;5039775;28;20029;-64
2021/10/02 11:35:18;;;;;;;2.05;1.00;;;17.90;93.00;;;;;;5039946;28;20056;-64
2021/10/02 11:38:05;;;;;;;2.75;1.00;;;17.80;93.20;;;;;;5039621;28;20046;-64
2021/10/02 11:40:42;;;;;;;4.82;0.95;;;17.70;93.30;;;;;;5039980;28;20029;-64
2021/10/02 11:43:22;;;;;;;2.80;1.25;;;17.80;92.70;;;;;;5041082;28;20022;-64
2021/10/02 11:45:49;;;;;;;3.97;1.00;;;17.90;92.50;;;;;;5040659;28;20298;-63
2021/10/02 11:48:35;;;;;;;1.85;0.80;;;18.00;92.40;;;;;;5040701;28;20029;-63
2021/10/02 11:51:29;;;;;;;3.55;0.90;;;18.20;91.80;;;;;;5040430;28;20060;-63
2021/10/02 11:54:14;;;;;;;2.15;1.00;;;18.20;92.00;;;;;;5040402;28;20079;-63
2021/10/02 11:56:43;;;;;;;2.45;1.38;;;18.20;91.40;;;;;;5040846;28;20030;-64
2021/10/02 11:59:11;;;;;;;1.67;1.00;;;18.20;91.50;;;;;;5023267;28;20025;-63
2021/10/02 12:01:45;;;;;;;2.05;1.02;;;18.30;91.50;;;;;;5039602;28;20025;-63
2021/10/02 12:04:16;;;;;;;3.03;0.90;;;18.30;91.70;;;;;;5039190;28;20025;-63
2021/10/02 12:06:45;;;;;;;3.95;1.10;;;18.40;91.40;;;;;;5039231;28;20460;-64
2021/10/02 12:09:15;;;;;;;5.22;1.30;;;18.40;91.50;;;;;;5039126;28;20060;-64
2021/10/02 12:11:49;;;;;;;3.65;1.00;;;18.50;91.50;;;;;;5021560;28;20032;-64
2021/10/02 12:14:25;;;;;;;2.53;1.10;;;18.60;91.40;;;;;;5039093;28;20029;-64
2021/10/02 12:16:56;;;;;;;;;;;18.60;91.30;;;;;;5039851;28;20025;-64
2021/10/02 12:19:24;;;;;;;4.25;1.23;;;18.70;91.10;;;;;;5039605;28;19955;-64
2021/10/02 12:21:52;;;;;;;6.07;1.98;;;18.70;91.30;;;;;;5039547;28;20021;-64
2021/10/02 12:24:28;;;;;;;2.78;0.98;;;18.70;90.80;;;;;;5039836;28;20324;-63
2021/10/02 12:27:00;;;;;;;2.60;1.20;;;18.80;90.90;;;;;;5039736;28;20028;-64
2021/10/02 12:29:48;;;;;;;1.98;1.02;;;18.80;91.30;;;;;;5039890;28;20017;-64
2021/10/02 12:32:20;;;;;;;2.75;0.98;;;19.00;90.70;;;;;;5039891;28;20068;-64
2021/10/02 12:34:56;;;;;;;1.83;0.95;;;19.10;90.70;;;;;;5039975;28;20321;-64
2021/10/02 12:37:35;;;;;;;3.03;1.15;;;19.10;90.90;;;;;;5039469;28;20065;-64
2021/10/02 12:40:08;;;;;;;2.30;1.20;;;19.10;90.50;;;;;;5021818;28;20021;-64
2021/10/02 12:42:44;;;;;;;5.20;1.00;;;19.10;90.70;;;;;;5037510;28;20061;-64
2021/10/02 12:45:17;;;;;;;4.57;1.40;;;18.90;90.70;;;;;;5038546;28;20014;-64
2021/10/02 12:47:49;;;;;;;3.78;1.00;;;18.80;90.90;;;;;;5038936;28;20037;-64
2021/10/02 12:50:22;;;;;;;3.42;1.20;;;18.60;91.00;;;;;;5037519;28;20425;-64
2021/10/02 12:52:52;;;;;;;4.38;0.80;;;18.30;91.40;;;;;;5038672;28;20033;-64
2021/10/02 12:55:19;;;;;;;3.28;1.20;;;18.20;91.80;;;;;;5021450;28;20021;-64
2021/10/02 12:57:48;;;;;;;3.00;0.88;;;18.00;92.10;;;;;;5038251;28;20057;-63
2021/10/02 13:00:21;;;;;;;1.73;0.80;;;17.80;92.20;;;;;;5038336;28;20028;-64
2021/10/02 13:02:55;;;;;;;2.20;1.17;;;17.80;92.40;;;;;;5020930;28;20029;-64
2021/10/02 13:05:26;;;;;;;3.25;1.20;;;17.70;92.40;;;;;;5039023;28;20026;-64
2021/10/02 13:07:56;;;;;;;3.03;1.10;;;17.80;92.20;;;;;;5039330;28;20440;-63
2021/10/02 13:10:37;;;;;;;4.28;1.00;;;17.80;91.90;;;;;;5038049;28;20120;-63
2021/10/02 13:13:20;;;;;;;3.20;1.15;;;17.80;91.90;;;;;;5038912;28;20091;-64
2021/10/02 13:15:52;;;;;;;6.10;1.70;;;17.70;91.90;;;;;;5038923;28;20056;-63
2021/10/02 13:18:24;;;;;;;2.83;0.98;;;17.70;92.20;;;;;;5038659;28;20030;-64
2021/10/02 13:20:54;;;;;;;2.70;1.35;;;17.70;92.00;;;;;;5021163;28;20021;-64
2021/10/02 13:23:35;;;;;;;2.67;1.33;;;17.80;92.30;;;;;;5037744;28;20329;-64
2021/10/02 13:26:18;;;;;;;5.38;1.10;;;17.80;92.00;;;;;;5020184;28;20033;-64
2021/10/02 13:28:48;;;;;;;3.20;0.88;;;17.90;92.10;;;;;;5037684;28;20068;-64
2021/10/02 13:31:16;;;;;;;1.50;0.90;;;18.00;91.50;;;;;;5038170;28;20097;-64
2021/10/02 13:33:48;;;;;;;1.65;0.80;;;18.00;91.30;;;;;;5037620;28;20104;-64
2021/10/02 13:36:34;;;;;;;2.42;0.90;;;18.10;91.50;;;;;;5020081;28;20025;-64
2021/10/02 13:39:13;;;;;;;4.63;1.42;;;18.20;91.40;;;;;;5036400;28;20123;-64
2021/10/02 13:41:46;;;;;;;2.95;1.00;;;18.20;91.60;;;;;;5038972;28;20368;-64
2021/10/02 13:44:28;;;;;;;4.22;0.70;;;18.20;91.50;;;;;;5038246;28;20021;-64
2021/10/02 13:47:00;;;;;;;1.67;0.90;;;18.40;91.80;;;;;;5037263;28;20026;-64
2021/10/02 13:49:33;;;;;;;3.22;0.88;;;18.60;91.00;;;;;;5037288;28;20026;-65
2021/10/02 13:52:00;;;;;;;1.85;1.27;;;18.90;90.50;;;;;;5037274;28;20021;-65
2021/10/02 13:54:29;;;;;;;3.40;1.08;;;19.40;90.20;;;;;;5037466;28;20049;-65
2021/10/02 13:57:06;;;;;;;4.35;1.10;;;20.10;88.40;;;;;;5037208;28;20053;-65
2021/10/02 13:59:37;;;;;;;3.55;1.17;;;20.80;85.90;;;;;;5037599;28;20034;-65
2021/10/02 14:02:06;;;;;;;2.17;0.90;;;21.30;83.60;;;;;;5037026;28;20026;-65
2021/10/02 14:04:34;;;;;;;2.38;1.00;;;21.30;82.60;;;;;;5019680;28;20017;-65
2021/10/02 14:07:05;;;;;;;2.88;1.27;;;21.00;83.00;;;;;;5037413;28;20040;-65